• Join FlightAware (Why Join?)
  • Login
  • US Flag 
10:05AM EDT


 

Airport Tracker/Info


-or-


 

Live Flight TrackerFlight Track Log ✈ SWA3034 ✈ 19-Aug-2013 ✈ KGSP - KHOU

Flight Track Log - Related Links

Times and Time Zones

All times are in EDT time to prevent confusion due to time zone crossing. See the SWA3034 flight status page for this flight to view local times or setup timezone preferences in your user account.

Time Position Orientation Groundspeed Altitude Reporting Facility
EDT Latitude Longitude Course Direction KTS MPH feet Rate Location/Type
10:45AM 34.9639 -82.3483 239° Southwest 280 322 10,000  Level Atlanta Center
10:46AM 34.9019 -82.4028 216° Southwest 288 331 10,000  Level Atlanta Center
10:47AM 34.8381 -82.4519 212° Southwest 288 331 10,000 720 Level Atlanta Center
10:48AM 34.4464 -82.7295 226° Southwest  Level FlightAware Approximate
10:48AM 34.7739 -82.5014 212° Southwest 283 326 11,500  Level Atlanta Center
10:49AM 34.3931 -82.8306 239° Southwest  Level FlightAware Approximate
10:49AM 34.7097 -82.5556 215° Southwest 283 326 14,700  Level Atlanta Center
10:50AM 34.3402 -82.9364 239° Southwest  Level FlightAware Approximate
10:50AM 34.6375 -82.6122 213° Southwest 301 346 16,400  Level Atlanta Center
10:51AM 34.5589 -82.6767 214° Southwest 355 409 18,200 2,220 Climbing Atlanta Center
10:52AM 34.4575 -82.7514 211° Southwest 383 441 20,900 2,400 Climbing Atlanta Center
10:53AM 34.3683 -82.8233 214° Southwest 393 452 23,000 1,200 Climbing Atlanta Center
10:54AM 34.2669 -82.8950 210° Southwest 412 474 23,300 1,020 Climbing Atlanta Center
10:55AM 34.1886 -83.0017 228° Southwest 415 478 25,100 1,800 Climbing Atlanta Center
10:56AM 34.1561 -83.1450 255° West 423 487 26,900 1,980 Climbing Atlanta Center
10:57AM 34.1197 -83.2861 253° West 435 501 29,100 2,040 Climbing Atlanta Center
10:58AM 34.0850 -83.4217 253° West 435 501 31,000 1,800 Climbing Atlanta Center
10:59AM 34.0481 -83.5575 252° West 435 501 32,800 1,800 Climbing Atlanta Center
11:00AM 34.0108 -83.6906 251° West 430 495 34,600 1,500 Climbing Atlanta Center
11:01AM 33.9797 -83.8108 253° West 425 489 35,800 1,080 Climbing Atlanta Center
11:03AM 33.9092 -84.0714 252° West 413 475 38,000 720 Climbing Atlanta Center
11:04AM 33.8733 -84.1964 251° West 406 467 38,000  Level Atlanta Center
11:05AM 33.8356 -84.3339 252° West 418 481 38,000  Level Atlanta Center
11:06AM 33.8039 -84.4714 255° West 424 488 38,000  Level Atlanta Center
11:07AM 33.7658 -84.5961 250° West 424 488 38,000  Level Atlanta Center
11:08AM 33.7297 -84.7283 252° West 424 488 38,000  Level Atlanta Center
11:09AM 33.6892 -84.8778 252° West 424 488 38,000  Level Atlanta Center
11:10AM 33.6569 -84.9947 252° West 424 488 38,000  Level Atlanta Center
11:11AM 33.6203 -85.1239 251° West 416 479 38,000  Level Atlanta Center
11:12AM 33.5836 -85.2508 251° West 416 479 38,000  Level Atlanta Center
11:13AM 33.5489 -85.3797 252° West 416 479 38,000  Level Atlanta Center
11:14AM 33.5119 -85.5114 251° West 411 473 38,000  Level Atlanta Center
11:15AM 33.4750 -85.6353 250° West 411 473 38,000  Level Atlanta Center
11:16AM 33.4378 -85.7664 251° West 406 467 38,000  Level Atlanta Center
11:17AM 33.3983 -85.8975 250° West 400 460 38,000  Level Atlanta Center
11:18AM 33.3675 -86.0064 251° West 407 468 38,000  Level Atlanta Center
11:19AM 33.3231 -86.1594 251° West 414 476 38,000  Level Atlanta Center
11:20AM 33.2853 -86.2828 250° West 409 471 38,000  Level Atlanta Center
11:21AM 33.2475 -86.4183 252° West 409 471 38,000  Level Atlanta Center
11:22AM 33.2072 -86.5514 250° West 419 482 38,000  Level Atlanta Center
11:23AM 33.1736 -86.6644 250° West 419 482 38,000  Level Atlanta Center
11:24AM 33.1353 -86.7925 250° West 424 488 38,000  Level Atlanta Center
11:25AM 33.0969 -86.9200 250° West 417 480 38,000  Level Atlanta Center
11:26AM 33.0561 -87.0478 249° West 417 480 38,000  Level Atlanta Center
11:27AM 33.0175 -87.1775 250° West 412 474 38,000  Level Atlanta Center
11:29AM 32.9225 -87.4814 250° West 412 474 38,000  Level Memphis Center
11:30AM 32.8817 -87.6089 249° West 417 480 38,000  Level Memphis Center
11:31AM 32.8425 -87.7389 250° West 417 480 38,000  Level Memphis Center
11:32AM 32.8014 -87.8686 249° West 417 480 38,000  Level Memphis Center
11:33AM 32.7603 -88.0106 251° West 417 480 38,000  Level Memphis Center
11:34AM 32.7231 -88.1375 251° West 412 474 38,000  Level Memphis Center
11:35AM 32.6814 -88.2642 249° West 412 474 38,000  Level Memphis Center
11:36AM 32.6458 -88.3811 250° West 419 482 38,000  Level Memphis Center
11:37AM 32.6058 -88.5053 249° West 419 482 38,000  Level Memphis Center
11:38AM 32.5658 -88.6319 249° West 414 476 38,000  Level Memphis Center
11:39AM 32.5258 -88.7558 249° West 414 476 38,000  Level Memphis Center
11:40AM 32.4836 -88.8847 249° West 414 476 38,000  Level Memphis Center
11:41AM 32.4453 -89.0058 249° West 414 476 38,000  Level Memphis Center
11:42AM 32.4028 -89.1369 249° West 414 476 38,000  Level Memphis Center
11:43AM 32.3622 -89.2603 249° West 414 476 38,000  Level Memphis Center
11:44AM 32.3217 -89.3839 249° West 414 476 38,000  Level Memphis Center
11:45AM 32.2806 -89.5094 249° West 414 476 38,000  Level Memphis Center
11:46AM 32.2397 -89.6378 249° West 414 476 38,000  Level Memphis Center
11:47AM 32.1986 -89.7633 249° West 414 476 38,000  Level Memphis Center
11:48AM 32.1553 -89.8911 248° West 414 476 38,000  Level Memphis Center
11:49AM 32.1142 -90.0164 249° West 414 476 38,000  Level Memphis Center
11:50AM 32.0725 -90.1417 249° West 414 476 38,000  Level Memphis Center
11:52AM 31.9728 -90.4375 248° West 417 480 38,000  Level Houston Center
11:53AM 31.9314 -90.5619 249° West 411 473 38,000  Level Houston Center
11:54AM 31.8883 -90.6889 248° West 417 480 38,000  Level Houston Center
11:55AM 31.8444 -90.8153 248° West 418 481 38,000  Level Houston Center
11:57AM 31.8014 -90.9417 248° West 419 482 38,000  Level Houston Center
11:58AM 31.7483 -91.0939 248° West 421 484 38,000  Level Houston Center
11:59AM 31.7042 -91.2197 248° West 419 482 38,000  Level Houston Center
12:00PM 31.6586 -91.3486 247° West 427 491 38,000  Level Houston Center
12:01PM 31.6153 -91.4733 248° West 416 479 38,000  Level Houston Center
12:02PM 31.5697 -91.6006 247° West 420 483 38,000  Level Houston Center
12:03PM 31.5200 -91.7403 247° West 421 484 38,000  Level Houston Center
12:04PM 31.4739 -91.8678 247° West 425 489 38,000  Level Houston Center
12:05PM 31.4253 -91.9942 246° West 427 491 38,000  Level Houston Center
12:06PM 31.3725 -92.1483 248° West 426 490 38,000  Level Houston Center
12:07PM 31.3272 -92.2772 248° West 429 494 38,000  Level Houston Center
12:08PM 31.2803 -92.4056 247° West 430 495 38,000  Level Houston Center
12:09PM 31.2339 -92.5336 247° West 430 495 38,000  Level Houston Center
12:10PM 31.1878 -92.6614 247° West 429 494 38,000  Level Houston Center
12:11PM 31.1422 -92.7886 247° West 427 491 38,000  Level Houston Center
12:12PM 31.0858 -92.9417 247° West 429 494 38,000  Level Houston Center
12:13PM 31.0400 -93.0686 247° West 428 493 38,000 -240 Level Houston Center
12:14PM 30.9931 -93.1972 247° West 432 497 37,600 -540 Descending Houston Center
12:15PM 30.9456 -93.3225 246° West 426 490 37,000 -300 Descending Houston Center
12:16PM 30.8994 -93.4481 247° West 424 488 37,000 -360 Level Houston Center
12:17PM 30.8442 -93.6003 247° West 429 494 36,300 -960 Descending Houston Center
12:18PM 30.7950 -93.7289 246° West 437 503 35,100 -2,040 Descending Houston Center
12:19PM 30.7472 -93.8583 247° West 439 505 32,100 -2,760 Descending Houston Center
12:20PM 30.6983 -93.9883 246° West 442 509 29,400 -2,280 Descending Houston Center
12:21PM 30.6356 -94.1542 246° West 464 534 27,500 -2,280 Descending Houston Center
12:22PM 30.5936 -94.2614 246° West 474 545 25,300 -2,820 Descending Houston Center
12:23PM 30.5406 -94.4044 247° West 461 531 22,400 -2,760 Descending Houston Center
12:24PM 30.4897 -94.5275 244° Southwest 437 503 19,800 -2,640 Descending Houston Center
12:25PM 30.4128 -94.6442 233° Southwest 415 478 17,100 -2,700 Descending Houston Center
12:26PM 30.3450 -94.7497 233° Southwest 408 470 14,400 -2,040 Descending Houston Center
12:27PM 30.2789 -94.8503 233° Southwest 392 451 13,000 -780 Descending Houston Center
12:28PM 30.2169 -94.9500 234° Southwest 383 441 12,900 -600 Descending Houston Center
12:29PM 30.1469 -95.0531 232° Southwest 388 447 11,900 -960 Descending Houston Center
12:30PM 30.0492 -95.1086 206° Southwest 379 436 11,000 -480 Descending Houston Center
12:31PM 29.9500 -95.1497 200° South 376 433 11,000 -60 Level Houston Center
12:32PM 29.8614 -95.1894 201° Southwest 310 357 10,900 -660 Descending Houston Center
12:33PM 29.7806 -95.2233 200° South 293 337 9,700 -1,560 Descending Houston Center
12:34PM 29.7039 -95.2350 188° South 285 328 7,800 -1,680 Descending Houston Center
12:35PM 29.6222 -95.2378 182° South 268 308 6,400 -900 Descending Houston Center
12:36PM 29.5561 -95.2506 190° South 238 274 6,000 -720 Descending Houston Center
12:37PM 29.5081 -95.2972 220° Southwest 226 260 5,000 -1,020 Descending Houston Center
12:38PM 29.5114 -95.3569 274° West 203 234 4,000 -960 Descending Houston Center
12:39PM 29.5261 -95.3700 322° Northwest 207 238 3,600 -1,620 Descending Houston Center
12:39PM 29.5603 -95.3631 10° North 170 196 2,400 -1,560 Descending Houston Center
12:40PM 29.5803 -95.3478 34° Northeast 184 212 2,000 -600 Descending Houston Center
12:40PM 29.5975 -95.3322 38° Northeast 156 180 1,800 -1,020 Descending Houston Center
12:41PM 29.6125 -95.3167 42° Northeast 165 190 1,000 -1,140 Descending Houston Center
12:42PM 29.6392 -95.2869 44° Northeast 145 167 100 -900 Descending Houston Center